createdAt,value
2023-05-24T00:00:43.100Z,13.8
2023-05-24T00:02:49.259Z,23.9
2023-05-24T00:04:58.315Z,29.8
2023-05-24T00:07:04.620Z,38.1
2023-05-24T00:09:10.999Z,38.7
2023-05-24T00:11:17.351Z,38.3
2023-05-24T00:13:23.696Z,55.2
2023-05-24T00:15:29.950Z,61.6
2023-05-24T00:17:36.301Z,71.1
2023-05-24T00:19:45.428Z,84.5
2023-05-24T00:21:51.678Z,91.2
2023-05-24T00:23:58.019Z,93.9
2023-05-24T00:25:02.622Z,96
2023-05-24T00:27:08.868Z,96.4
2023-05-24T00:29:15.213Z,98.1
2023-05-24T00:31:21.579Z,98.4
2023-05-24T00:33:30.816Z,99.3
2023-05-24T00:35:37.215Z,99.6
2023-05-24T00:37:43.530Z,99.9
2023-05-24T00:48:18.138Z,99.9
2023-05-24T00:50:24.462Z,99.9
2023-05-24T00:52:30.806Z,99.9
2023-05-24T00:56:43.478Z,99.9
2023-05-24T00:58:49.777Z,99.9
2023-05-24T01:00:56.046Z,99.9
2023-05-24T01:03:05.461Z,99.9
2023-05-24T01:05:11.590Z,99.9
2023-05-24T01:17:52.549Z,99.9
2023-05-24T01:19:58.890Z,99.9
2023-05-24T01:23:09.792Z,99.9
2023-05-24T01:29:28.826Z,99.9
2023-05-24T01:31:38.122Z,99.9
2023-05-24T01:33:44.394Z,99.9
2023-05-24T01:35:50.702Z,99.9
2023-05-24T01:37:57.037Z,99.9
2023-05-24T01:40:03.375Z,99.9
2023-05-24T01:42:09.697Z,99.9
2023-05-24T01:44:16.040Z,99.9
2023-05-24T01:46:25.306Z,99.9
2023-05-24T01:50:37.948Z,99.9
2023-05-24T01:54:50.613Z,99.9
2023-05-24T01:56:56.933Z,99.9
2023-05-24T01:59:03.269Z,99.9
2023-05-24T02:01:12.432Z,99.9
2023-05-24T02:03:18.651Z,99.9
2023-05-24T02:05:24.984Z,99.9
2023-05-24T02:07:31.298Z,99.9
2023-05-24T02:09:37.648Z,99.9
2023-05-24T02:21:16.855Z,99.9
2023-05-24T02:23:23.186Z,99.9
2023-05-24T02:25:29.504Z,99.9
2023-05-24T02:29:45.114Z,99.9
2023-05-24T02:38:10.434Z,99.9
2023-05-24T02:40:16.750Z,99.9
2023-05-24T02:42:23.096Z,99.9
2023-05-24T02:46:38.641Z,99.9
2023-05-24T02:48:44.873Z,99.9
2023-05-24T02:50:51.214Z,99.9
2023-05-24T02:57:10.179Z,99.9
2023-05-24T02:59:19.428Z,99.9
2023-05-24T03:01:25.794Z,99.9
2023-05-24T03:03:32.183Z,99.9
2023-05-24T03:05:38.399Z,99.9
2023-05-24T03:07:44.710Z,99.9
2023-05-24T03:09:51.068Z,99.9
2023-05-24T03:18:19.232Z,99.9
2023-05-24T03:22:51.545Z,99.9
2023-05-24T03:24:57.866Z,99.9
2023-05-24T03:27:07.114Z,99.9
2023-05-24T03:29:13.438Z,99.9
2023-05-24T03:31:19.782Z,99.9
2023-05-24T03:33:26.106Z,99.9
2023-05-24T03:44:00.701Z,99.9
2023-05-24T03:46:07.099Z,99.9
2023-05-24T03:48:13.386Z,99.9
2023-05-24T03:50:19.704Z,99.9
2023-05-24T03:52:26.029Z,99.9
2023-05-24T03:54:32.360Z,99.9
2023-05-24T03:56:41.505Z,99.9
2023-05-24T03:58:47.859Z,99.9
2023-05-24T04:00:54.190Z,99.9
2023-05-24T04:03:00.553Z,99.9
2023-05-24T04:05:06.862Z,99.9
2023-05-24T04:07:13.190Z,99.9
2023-05-24T04:09:19.404Z,99.9
2023-05-24T04:11:28.728Z,99.9
2023-05-24T04:13:34.913Z,99.9
2023-05-24T04:15:41.238Z,99.9
2023-05-24T04:16:45.892Z,99.9
2023-05-24T04:18:52.302Z,99.9
2023-05-24T04:23:04.795Z,99.9
2023-05-24T04:25:13.983Z,99.9
2023-05-24T04:27:20.299Z,99.9
2023-05-24T04:31:34.621Z,99.9
2023-05-24T04:33:40.711Z,99.9
2023-05-24T04:37:53.290Z,99.9
2023-05-24T04:42:08.582Z,97.6
2023-05-24T04:44:14.860Z,97.7
2023-05-24T04:46:21.155Z,84.3
2023-05-24T04:48:27.360Z,73.8
2023-05-24T04:50:33.602Z,79.3
2023-05-24T04:52:39.878Z,78.2
2023-05-24T04:54:48.918Z,72.5
2023-05-24T04:56:55.176Z,73.1
2023-05-24T05:05:20.246Z,31.6
2023-05-24T05:09:35.567Z,26
2023-05-24T05:11:41.846Z,26.3
2023-05-24T05:13:48.122Z,13.3
2023-05-24T05:19:05.190Z,1
2023-05-24T05:21:11.438Z,1
2023-05-24T05:25:26.821Z,1
2023-05-24T05:29:39.361Z,1
2023-05-24T05:44:26.052Z,1
2023-05-24T05:48:38.602Z,1
2023-05-24T05:50:44.859Z,1
2023-05-24T05:52:53.961Z,1
2023-05-24T05:55:00.242Z,1
2023-05-24T05:57:06.516Z,1
2023-05-24T05:59:12.786Z,1
2023-05-24T06:01:19.064Z,1
2023-05-24T06:03:25.544Z,1
2023-05-24T06:12:57.819Z,1
2023-05-24T06:15:04.085Z,1
2023-05-24T06:19:16.812Z,1
2023-05-24T06:21:25.750Z,1
2023-05-24T06:25:38.353Z,1
2023-05-24T06:27:44.621Z,99.6
2023-05-24T06:29:50.921Z,99.8
2023-05-24T06:31:57.248Z,99.8
2023-05-24T06:34:04.757Z,99.8
2023-05-24T06:36:12.596Z,99.8
2023-05-24T06:38:18.904Z,99.8
2023-05-24T06:40:25.178Z,99.9
2023-05-24T06:46:44.072Z,99.9
2023-05-24T06:48:50.481Z,1
2023-05-24T06:50:59.443Z,1
2023-05-24T06:53:05.734Z,99.9
2023-05-24T07:12:24.321Z,99.9
2023-05-24T07:14:30.631Z,99.9
2023-05-24T07:16:36.990Z,99.9
2023-05-24T07:18:46.028Z,99.9
2023-05-24T07:20:52.412Z,99.9
2023-05-24T07:22:58.604Z,99.9
2023-05-24T07:29:17.496Z,99.9
2023-05-24T07:31:23.808Z,99.9
2023-05-24T07:33:32.947Z,99.9
2023-05-24T07:48:19.878Z,99.9
2023-05-24T07:50:26.129Z,99.9
2023-05-24T07:56:45.024Z,99.9
2023-05-24T08:03:06.806Z,99.9
2023-05-24T08:05:13.048Z,99.9
2023-05-24T08:07:19.344Z,99.9
2023-05-24T08:08:23.861Z,99.9
2023-05-24T08:10:30.146Z,99.9
2023-05-24T08:12:36.449Z,99.9
2023-05-24T08:14:42.755Z,99.9
2023-05-24T08:16:51.932Z,99.9
2023-05-24T08:18:58.186Z,99.9
2023-05-24T08:21:04.433Z,99.9
2023-05-24T08:23:10.728Z,99.9
2023-05-24T08:25:17.070Z,99.9
2023-05-24T08:27:23.358Z,99.9
2023-05-24T08:29:29.641Z,99.9
2023-05-24T08:31:38.786Z,99.9
2023-05-24T08:33:45.041Z,99.9
2023-05-24T08:35:51.345Z,99.9
2023-05-24T08:37:57.667Z,99.9
2023-05-24T08:48:32.113Z,99.9
2023-05-24T08:52:44.555Z,99.9
2023-05-24T08:54:50.938Z,99.9
2023-05-24T09:03:18.983Z,99.9
2023-05-24T09:05:25.141Z,99.9
2023-05-24T09:06:29.680Z,99.9
2023-05-24T09:08:35.994Z,99.9
2023-05-24T09:10:54.065Z,99.9
2023-05-24T09:19:10.271Z,99.9
2023-05-24T09:21:16.559Z,99.9
2023-05-24T09:27:35.450Z,99.9
2023-05-24T09:33:57.145Z,99.9
2023-05-24T09:36:03.436Z,99.9
2023-05-24T09:46:37.790Z,99.9
2023-05-24T09:48:44.028Z,99.9
2023-05-24T09:52:56.610Z,99.9
2023-05-24T09:55:02.905Z,99.9
2023-05-24T09:59:18.331Z,99.9
2023-05-24T10:01:24.685Z,99.9
2023-05-24T10:03:30.962Z,99.9
2023-05-24T10:04:35.502Z,99.9
2023-05-24T10:08:48.035Z,99.9
2023-05-24T10:10:54.349Z,99.9
2023-05-24T10:13:03.485Z,99.9
2023-05-24T10:15:09.749Z,99.9
2023-05-24T10:19:22.349Z,99.9
2023-05-24T10:21:28.648Z,99.9
2023-05-24T10:23:34.934Z,99.9
2023-05-24T10:25:41.197Z,99.9
2023-05-24T10:27:50.322Z,99.9
2023-05-24T10:32:02.892Z,99.9
2023-05-24T10:36:17.090Z,99.9
2023-05-24T10:38:23.324Z,99.9
2023-05-24T10:42:38.733Z,99.9
2023-05-24T10:46:51.374Z,99.9
2023-05-24T10:53:10.172Z,99.9
2023-05-24T10:55:16.461Z,99.9
2023-05-24T10:59:31.858Z,99.9
2023-05-24T11:01:38.196Z,99.9
2023-05-24T11:10:23.610Z,99.9
2023-05-24T11:14:36.192Z,99.9
2023-05-24T11:16:42.573Z,99.9
2023-05-24T11:18:48.745Z,99.9
2023-05-24T11:20:55.119Z,99.9
2023-05-24T11:23:01.299Z,99.9
2023-05-24T11:25:10.446Z,99.9
2023-05-24T11:27:16.713Z,99.9
2023-05-24T11:29:23.275Z,99.9
2023-05-24T11:31:29.380Z,99.9
2023-05-24T11:35:41.854Z,99.9
2023-05-24T11:37:48.121Z,99.9
2023-05-24T11:44:09.781Z,99.9
2023-05-24T11:48:22.292Z,99.9
2023-05-24T11:50:28.942Z,99.9
2023-05-24T11:54:43.967Z,99.9
2023-05-24T11:56:50.239Z,99.9
2023-05-24T11:58:56.479Z,99.9
2023-05-24T12:00:01.015Z,99.9
2023-05-24T12:06:19.824Z,99.9
2023-05-24T12:08:28.974Z,99.9
2023-05-24T12:10:35.232Z,99.9
2023-05-24T12:12:45.545Z,99.9
2023-05-24T12:14:47.745Z,99.9
2023-05-24T12:16:54.020Z,99.9
2023-05-24T12:19:06.998Z,99.9
2023-05-24T12:21:06.552Z,99.9
2023-05-24T12:27:28.178Z,99.9
2023-05-24T12:29:34.443Z,99.9
2023-05-24T12:31:40.767Z,99.9
2023-05-24T12:35:53.256Z,99.9
2023-05-24T12:44:21.195Z,99.9
2023-05-24T12:46:27.527Z,99.9
2023-05-24T12:48:33.742Z,99.9
2023-05-24T12:52:49.125Z,99.9
2023-05-24T12:54:55.412Z,99.9
2023-05-24T12:57:01.716Z,99.9
2023-05-24T12:58:06.239Z,99.9
2023-05-24T13:06:34.187Z,99.9
2023-05-24T13:10:46.715Z,99.9
2023-05-24T13:21:20.928Z,99.9
2023-05-24T13:23:27.220Z,99.9
2023-05-24T13:25:33.465Z,99.9
2023-05-24T13:27:39.737Z,99.9
2023-05-24T13:33:58.548Z,99.9
2023-05-24T13:36:07.664Z,99.9
2023-05-24T13:40:20.216Z,99.9
2023-05-24T13:42:26.520Z,99.9
2023-05-24T13:44:32.769Z,99.9
2023-05-24T13:46:39.331Z,99.9
2023-05-24T13:50:54.448Z,99.9
2023-05-24T13:53:00.711Z,99.9
2023-05-24T13:55:07.026Z,99.9
2023-05-24T13:56:11.563Z,99.9
2023-05-24T13:58:17.833Z,99.9
2023-05-24T14:02:30.444Z,99.9
2023-05-24T14:13:26.618Z,99.9
2023-05-24T14:25:45.448Z,99.9
2023-05-24T14:29:57.762Z,99.9
2023-05-24T14:34:13.165Z,99.9
2023-05-24T14:36:19.451Z,99.9
2023-05-24T14:38:25.715Z,99.9
2023-05-24T14:42:38.285Z,99.9
2023-05-24T14:46:52.409Z,99.9
2023-05-24T14:48:59.971Z,99.9
2023-05-24T14:51:06.274Z,99.9
2023-05-24T14:53:12.994Z,99.9
2023-05-24T14:55:32.425Z,99.9
2023-05-24T14:59:45.019Z,99.9
2023-05-24T15:01:54.145Z,99.9
2023-05-24T15:04:00.423Z,99.9
2023-05-24T15:06:06.726Z,99.9
2023-05-24T15:08:13.010Z,99.9
2023-05-24T15:10:19.322Z,99.9
2023-05-24T15:12:25.601Z,99.9
2023-05-24T15:14:31.880Z,99.9
2023-05-24T15:16:41.036Z,99.9
2023-05-24T15:18:47.326Z,99.9
2023-05-24T15:20:53.602Z,99.9
2023-05-24T15:22:59.863Z,99.9
2023-05-24T15:25:06.172Z,99.9
2023-05-24T15:27:12.452Z,99.9
2023-05-24T15:29:18.730Z,99.9
2023-05-24T15:31:27.919Z,99.9
2023-05-24T15:35:40.443Z,99.9
2023-05-24T15:39:53.014Z,99.9
2023-05-24T15:41:59.299Z,99.9
2023-05-24T15:44:05.616Z,99.9
2023-05-24T15:50:42.614Z,99.9
2023-05-24T15:55:44.449Z,99.9
2023-05-24T15:57:50.766Z,99.9
2023-05-24T15:59:59.877Z,99.9
2023-05-24T16:02:06.229Z,99.9
2023-05-24T16:04:12.491Z,99.9
2023-05-24T16:06:18.762Z,99.9
2023-05-24T16:08:25.060Z,99.9
2023-05-24T16:10:31.341Z,99.9
2023-05-24T16:16:53.180Z,99.9
2023-05-24T16:18:59.374Z,99.9
2023-05-24T16:21:05.650Z,99.9
2023-05-24T16:23:11.930Z,99.9
2023-05-24T16:25:18.230Z,99.9
2023-05-24T16:27:24.568Z,99.9
2023-05-24T16:42:12.964Z,99.9
2023-05-24T16:44:23.646Z,99.9
2023-05-24T16:46:29.954Z,99.9
2023-05-24T16:48:36.191Z,99.9
2023-05-24T16:49:40.724Z,99.9
2023-05-24T16:51:47.045Z,99.9
2023-05-24T16:53:53.338Z,99.9
2023-05-24T16:55:59.617Z,99.9
2023-05-24T16:58:08.753Z,99.9
2023-05-24T17:00:15.032Z,99.9
2023-05-24T17:08:40.183Z,99.9
2023-05-24T17:15:01.919Z,99.9
2023-05-24T17:21:20.791Z,99.9
2023-05-24T17:23:27.054Z,99.9
2023-05-24T17:25:33.374Z,99.9
2023-05-24T17:31:55.152Z,99.9
2023-05-24T17:36:07.677Z,99.9
2023-05-24T17:38:13.976Z,99.9
2023-05-24T17:42:29.366Z,99.9
2023-05-24T17:46:42.046Z,99.9
2023-05-24T17:47:46.564Z,99.9
2023-05-24T17:52:00.546Z,99.9
2023-05-24T17:54:05.455Z,99.9
2023-05-24T17:58:20.870Z,99.9
2023-05-24T18:00:27.164Z,99.9
2023-05-24T18:02:33.496Z,99.9
2023-05-24T18:04:39.851Z,99.9
2023-05-24T18:06:46.048Z,99.9
2023-05-24T18:13:07.773Z,99.9
2023-05-24T18:19:26.675Z,99.9
2023-05-24T18:23:39.252Z,99.9
2023-05-24T18:30:00.997Z,99.9
2023-05-24T18:34:13.552Z,99.9
2023-05-24T18:38:26.129Z,99.9
2023-05-24T18:47:08.354Z,99.9
2023-05-24T18:51:20.841Z,99.9
2023-05-24T18:53:29.963Z,99.9
2023-05-24T18:55:36.269Z,99.9
2023-05-24T18:57:42.555Z,99.9
2023-05-24T18:59:48.839Z,99.9
2023-05-24T19:01:55.162Z,99.9
2023-05-24T19:04:01.443Z,99.9
2023-05-24T19:08:16.846Z,99.9
2023-05-24T19:10:23.137Z,99.9
2023-05-24T19:12:29.431Z,99.9
2023-05-24T19:14:35.746Z,99.9
2023-05-24T19:20:54.615Z,99.9
2023-05-24T19:23:03.738Z,99.9
2023-05-24T19:31:28.947Z,1
2023-05-24T19:33:37.139Z,1
2023-05-24T19:35:41.596Z,1
2023-05-24T19:45:14.054Z,1
2023-05-24T19:47:20.352Z,1
2023-05-24T19:49:26.622Z,1
2023-05-24T19:55:48.307Z,1
2023-05-24T20:02:07.227Z,1
2023-05-24T20:04:13.556Z,1
2023-05-24T20:06:22.575Z,1
2023-05-24T20:08:28.854Z,1
2023-05-24T20:10:35.157Z,1
2023-05-24T20:12:41.463Z,1
2023-05-24T20:16:54.033Z,1
2023-05-24T20:19:00.330Z,1
2023-05-24T20:21:09.396Z,1
2023-05-24T20:23:15.699Z,1
2023-05-24T20:25:21.991Z,1
2023-05-24T20:27:28.272Z,1
2023-05-24T20:31:40.910Z,1
2023-05-24T20:33:47.144Z,1
2023-05-24T20:35:56.244Z,1
2023-05-24T20:38:02.512Z,1
2023-05-24T20:40:08.798Z,1
2023-05-24T20:43:19.619Z,1
2023-05-24T20:45:25.956Z,1
2023-05-24T20:53:53.880Z,1
2023-05-24T20:58:06.394Z,2.8
2023-05-24T21:02:19.007Z,2.5
2023-05-24T21:04:28.039Z,4
2023-05-24T21:06:34.461Z,3.6
2023-05-24T21:08:40.606Z,3.6
2023-05-24T21:10:46.861Z,3.5
2023-05-24T21:12:53.144Z,1
2023-05-24T21:17:05.712Z,1
2023-05-24T21:25:33.614Z,1
2023-05-24T21:29:46.149Z,1
2023-05-24T21:31:52.414Z,1
2023-05-24T21:34:01.503Z,1
2023-05-24T21:36:07.766Z,1
2023-05-24T21:38:14.007Z,1
2023-05-24T21:43:31.102Z,1
2023-05-24T21:45:37.362Z,1
2023-05-24T21:47:46.495Z,1
2023-05-24T21:49:52.713Z,1
2023-05-24T21:58:17.769Z,10.3
2023-05-24T22:02:33.139Z,13.1
2023-05-24T22:04:39.378Z,17
2023-05-24T22:06:45.641Z,25.9
2023-05-24T22:08:51.915Z,34.2
2023-05-24T22:13:04.449Z,48.9
2023-05-24T22:15:10.709Z,49.6
2023-05-24T22:19:38.957Z,45.3
2023-05-24T22:21:32.319Z,53.4
2023-05-24T22:25:45.083Z,56.8
2023-05-24T22:27:51.107Z,70.4
2023-05-24T22:32:06.543Z,89.7
2023-05-24T22:36:18.948Z,94.9
2023-05-24T22:38:44.697Z,96.3
2023-05-24T22:40:50.969Z,96.9
2023-05-24T22:42:57.319Z,97.4
2023-05-24T22:45:06.258Z,98.2
2023-05-24T22:49:20.389Z,98.8
2023-05-24T22:51:26.578Z,99.1
2023-05-24T22:53:32.860Z,99.3
2023-05-24T22:55:39.079Z,99.5
2023-05-24T22:57:45.345Z,99.7
2023-05-24T22:59:54.417Z,99.9
2023-05-24T23:02:00.649Z,99.9
2023-05-24T23:06:13.163Z,99.9
2023-05-24T23:10:25.656Z,99.9
2023-05-24T23:14:40.987Z,99.9
2023-05-24T23:16:47.278Z,99.9
2023-05-24T23:20:59.851Z,99.9
2023-05-24T23:23:06.123Z,99.9
2023-05-24T23:25:12.391Z,99.9
2023-05-24T23:27:18.730Z,99.9
2023-05-24T23:29:27.782Z,99.9
2023-05-24T23:31:34.044Z,99.9
2023-05-24T23:33:40.281Z,99.9
2023-05-24T23:43:12.595Z,99.9
2023-05-24T23:45:18.823Z,99.9
2023-05-24T23:47:25.117Z,99.9
2023-05-24T23:49:31.326Z,99.9
2023-05-24T23:51:37.556Z,99.9
2023-05-24T23:53:43.830Z,99.9
2023-05-24T23:55:50.065Z,99.9
2023-05-24T23:57:59.123Z,99.9
